Погода Аграфенинона неделю

Тверская область, Россия

19 - 25 мая
  • 19мая
    Сегодня
    +9°
    +23°
    Ясно и безоблачно
    ВремяПогодаТемператураВлажностьДавлениеВетер, м/сВероятность осадков
    00:00Ясно и безоблачно+9°C63 %750 мм2.4 м/с2 %
    03:00Ясно и безоблачно+6°C75 %750 мм2.4 м/с2 %
    06:00Ясно и безоблачно+8°C77 %750 мм2.1 м/с2 %
    09:00Ясно и безоблачно+17°C59 %750 мм1.6 м/с2 %
    12:00Ясно и безоблачно+21°C41 %749 мм1.8 м/с2 %
    15:00Ясно и безоблачно+23°C37 %748 мм1.8 м/с2 %
    18:00Ясно и безоблачно+23°C39 %747 мм2.1 м/с2 %
    21:00Ясно и безоблачно+17°C58 %747 мм2.8 м/с2 %
  • 20мая
    Понедельник
    +8°
    +24°
    Небольшая облачность
    ВремяПогодаТемператураВлажностьДавлениеВетер, м/сВероятность осадков
    00:00Ясно и безоблачно+12°C66 %746 мм2.8 м/с2 %
    03:00Ясно и безоблачно+10°C77 %746 мм2.7 м/с2 %
    06:00Небольшая облачность+12°C76 %746 мм2.7 м/с2 %
    09:00Ясно и безоблачно+20°C60 %747 мм2.7 м/с1 %
    12:00Небольшая облачность+22°C40 %747 мм4.4 м/с9 %
    15:00Небольшая облачность+24°C46 %746 мм3.9 м/с25 %
    18:00Небольшая облачность, ливень+20°C77 %747 мм1.6 м/с55 %
    21:00Облачно с прояснениями+16°C87 %747 мм1.9 м/с9 %
  • 21мая
    Вторник
    +6°
    +22°
    Ясно и безоблачно
    ВремяПогодаТемператураВлажностьДавлениеВетер, м/сВероятность осадков
    00:00Ясно и безоблачно+12°C93 %748 мм2.2 м/с4 %
    03:00Ясно и безоблачно+9°C88 %748 мм2.0 м/с3 %
    06:00Ясно и безоблачно+10°C86 %749 мм2.0 м/с4 %
    09:00Ясно и безоблачно+17°C69 %750 мм1.0 м/с4 %
    12:00Практически безоблачно+20°C45 %750 мм2.4 м/с3 %
    15:00Ясно и безоблачно+22°C39 %750 мм3.2 м/с3 %
    18:00Ясно и безоблачно+21°C32 %750 мм3.3 м/с2 %
    21:00Ясно и безоблачно+15°C56 %750 мм2.1 м/с2 %
  • 22мая
    Среда
    +5°
    +20°
    Ясно и безоблачно
    ВремяПогодаТемператураВлажностьДавлениеВетер, м/сВероятность осадков
    00:00Ясно и безоблачно+10°C57 %751 мм3.7 м/с2 %
    03:00Ясно и безоблачно+8°C54 %751 мм3.9 м/с2 %
    06:00Ясно и безоблачно+7°C59 %752 мм3.4 м/с2 %
    09:00Ясно и безоблачно+15°C51 %753 мм3.5 м/с2 %
    12:00Ясно и безоблачно+18°C38 %753 мм3.6 м/с2 %
    15:00Ясно и безоблачно+19°C38 %753 мм3.9 м/с2 %
    18:00Ясно и безоблачно+18°C39 %753 мм4.3 м/с2 %
    21:00Ясно и безоблачно+13°C47 %754 мм3.4 м/с2 %
  • 23мая
    Четверг
    +5°
    +19°
    Ясно и безоблачно
    ВремяПогодаТемператураВлажностьДавлениеВетер, м/сВероятность осадков
    00:00Ясно и безоблачно+9°C53 %755 мм3.3 м/с2 %
    03:00Ясно и безоблачно+6°C59 %756 мм2.6 м/с2 %
    06:00Ясно и безоблачно+6°C62 %757 мм2.9 м/с2 %
    09:00Ясно и безоблачно+14°C39 %758 мм3.6 м/с2 %
    12:00Ясно и безоблачно+17°C36 %758 мм2.9 м/с2 %
    15:00Ясно и безоблачно+18°C35 %758 мм1.9 м/с4 %
    18:00Ясно и безоблачно+19°C36 %757 мм2.1 м/с5 %
    21:00Ясно и безоблачно+13°C52 %757 мм2.5 м/с3 %
Мы используем cookies
Соглашаюсь